Bville, Texas
Current Conditions -  °F | °C
As of 5:53 AM on Thursday 29 Jan 2015 (Local Time) from KBRO Reporting Station
Clear Clear  
Wind Chill: 59°   Ceiling: Unl
Heat Index: 59°   Visibility: 9mi
Dew Point: 58°   Wind: 6mph
Humidity: 96%   Direction: 130°SE
Pressure: 30.13"   Gusts: NA
Location:  26.0002°N, 97.5729°W
Report Text: KBRO 291153Z 13005KT 9SM CLR 15/14 A3013 RMK AO2 SLP201 T01500144 10156 20139 55003
Loading
Personal Weather Stations






























Interactive Weather Map New forecast layout! Learn more

10-Day Weather Forecast

Advertisements
Track Severe Weather on mobile